Terminal Aerodrome Forecast
Issued by NWS Tampa Bay Area, FL

Home | Current Version | Previous Version | Text Only | Print | Product List | Glossary On
Versions: 1 2 3 4 5 6 7 8 9 10 11 12 13 14 15 16 17 18 19 20 21 22 23 24
658
FTUS42 KTBW 231120
TAFTPA
TAF
KTPA 231120Z 2312/2412 05006KT P6SM SCT070 SCT200
     FM231400 07008KT P6SM FEW030 SCT070
     FM231800 07010KT P6SM VCSH SCT025 BKN050
     FM240200 07012G17KT P6SM SCT030 SCT250
     FM241000 07008KT P6SM FEW020 SCT250=

USA.gov is the U.S. government's official web portal to all federal, state and local government web resources and services.